createdAt,value
2017-04-26T04:00:35.875Z,0.16
2017-04-26T04:01:01.382Z,0.22
2017-04-26T04:01:26.830Z,0.22
2017-04-26T04:01:52.365Z,0.19
2017-04-26T04:02:17.868Z,0.19
2017-04-26T04:02:43.357Z,0.34
2017-04-26T04:03:08.841Z,0.32
2017-04-26T04:03:34.272Z,0.28
2017-04-26T04:03:59.738Z,0.26
2017-04-26T04:04:25.284Z,0.23
2017-04-26T04:04:50.660Z,0.31
2017-04-26T04:05:16.196Z,0.29
2017-04-26T04:05:41.695Z,0.29
2017-04-26T04:06:07.151Z,0.39
2017-04-26T04:06:32.632Z,0.32
2017-04-26T04:06:58.076Z,0.29
2017-04-26T04:07:23.563Z,0.41
2017-04-26T04:07:49.027Z,0.39
2017-04-26T04:08:14.465Z,0.32
2017-04-26T04:08:39.929Z,0.41
2017-04-26T04:09:05.407Z,0.39
2017-04-26T04:09:30.932Z,0.26
2017-04-26T04:09:56.453Z,0.26
2017-04-26T04:10:21.922Z,0.34
2017-04-26T04:10:47.521Z,0.25
2017-04-26T04:11:12.998Z,0.37
2017-04-26T04:11:38.473Z,0.28
2017-04-26T04:12:03.991Z,0.34
2017-04-26T04:12:29.658Z,0.31
2017-04-26T04:12:55.179Z,0.31
2017-04-26T04:13:20.702Z,0.26
2017-04-26T04:13:46.159Z,0.4
2017-04-26T04:14:11.651Z,0.37
2017-04-26T04:14:37.077Z,0.36
2017-04-26T04:15:02.564Z,0.39
2017-04-26T04:15:27.992Z,0.36
2017-04-26T04:15:53.473Z,0.36
2017-04-26T04:16:19.004Z,0.28
2017-04-26T04:16:44.658Z,0.34
2017-04-26T04:17:10.194Z,0.39
2017-04-26T04:17:35.719Z,0.36
2017-04-26T04:18:01.117Z,0.34
2017-04-26T04:18:26.663Z,0.36
2017-04-26T04:18:52.147Z,0.39
2017-04-26T04:19:17.714Z,0.37
2017-04-26T04:19:43.185Z,0.34
2017-04-26T04:20:08.569Z,0.39
2017-04-26T04:20:34.037Z,0.31
2017-04-26T04:20:59.551Z,0.36
2017-04-26T04:21:25.010Z,0.4
2017-04-26T04:21:50.463Z,0.4
2017-04-26T04:22:15.991Z,0.43
2017-04-26T04:22:41.493Z,0.46
2017-04-26T04:23:06.920Z,0.4
2017-04-26T04:23:32.401Z,0.37
2017-04-26T04:23:57.888Z,0.44
2017-04-26T04:24:23.436Z,0.46
2017-04-26T04:24:48.911Z,0.47
2017-04-26T04:25:14.398Z,0.52
2017-04-26T04:25:39.894Z,0.47
2017-04-26T04:26:05.332Z,0.43
2017-04-26T04:26:30.809Z,0.46
2017-04-26T04:26:56.273Z,0.4
2017-04-26T04:27:21.802Z,0.46
2017-04-26T04:27:47.222Z,0.41
2017-04-26T04:28:12.729Z,0.4
2017-04-26T04:28:38.189Z,0.39
2017-04-26T04:29:03.698Z,0.39
2017-04-26T04:29:29.144Z,0.39
2017-04-26T04:29:54.641Z,0.37
2017-04-26T04:30:20.144Z,0.39
2017-04-26T04:30:45.552Z,0.44
2017-04-26T04:31:11.049Z,0.43
2017-04-26T04:31:36.483Z,0.36
2017-04-26T04:32:01.992Z,0.44
2017-04-26T04:32:27.407Z,0.41
2017-04-26T04:32:52.879Z,0.4
2017-04-26T04:33:18.354Z,0.47
2017-04-26T04:33:43.858Z,0.52
2017-04-26T04:34:09.305Z,0.49
2017-04-26T04:34:34.784Z,0.5
2017-04-26T04:35:00.275Z,0.5
2017-04-26T04:35:25.778Z,0.49
2017-04-26T04:35:51.248Z,0.5
2017-04-26T04:36:16.690Z,0.5
2017-04-26T04:36:42.193Z,0.6
2017-04-26T04:37:07.638Z,0.55
2017-04-26T04:37:33.147Z,0.49
2017-04-26T04:37:58.565Z,0.55
2017-04-26T04:38:24.225Z,0.55
2017-04-26T04:38:49.699Z,0.52
2017-04-26T04:39:15.368Z,0.58
2017-04-26T04:39:40.730Z,0.58
2017-04-26T04:40:06.210Z,0.59
2017-04-26T04:40:31.703Z,0.52
2017-04-26T04:40:57.221Z,0.55
2017-04-26T04:41:22.653Z,0.56
2017-04-26T04:41:48.114Z,0.55
2017-04-26T04:42:13.608Z,0.55
2017-04-26T04:42:39.212Z,0.56
2017-04-26T04:43:04.751Z,0.52
2017-04-26T04:43:30.220Z,0.59
2017-04-26T04:43:55.649Z,0.62
2017-04-26T04:44:21.164Z,0.63
2017-04-26T04:44:46.607Z,0.55
2017-04-26T04:45:12.092Z,0.6
2017-04-26T04:45:37.544Z,0.56
2017-04-26T04:46:03.008Z,0.59
2017-04-26T04:46:28.449Z,0.56
2017-04-26T04:46:53.946Z,0.62
2017-04-26T04:47:19.418Z,0.55
2017-04-26T04:47:44.882Z,0.6
2017-04-26T04:48:10.347Z,0.66
2017-04-26T04:48:35.826Z,0.66
2017-04-26T04:49:01.276Z,0.7
2017-04-26T04:49:26.766Z,0.65
2017-04-26T04:49:52.246Z,0.68
2017-04-26T04:50:17.679Z,0.63
2017-04-26T04:50:43.191Z,0.68
2017-04-26T04:51:08.652Z,0.69
2017-04-26T04:51:34.166Z,0.83
2017-04-26T04:51:59.639Z,0.73
2017-04-26T04:52:25.099Z,0.77
2017-04-26T04:52:50.530Z,0.76
2017-04-26T04:53:15.985Z,0.77
2017-04-26T04:53:41.481Z,0.83
2017-04-26T04:54:06.919Z,0.84
2017-04-26T04:54:32.380Z,0.88
2017-04-26T04:54:57.879Z,0.92
2017-04-26T04:55:23.338Z,0.96
2017-04-26T04:55:48.880Z,0.83
2017-04-26T04:56:14.346Z,0.96
2017-04-26T04:56:39.827Z,0.96
2017-04-26T04:57:05.319Z,1.05
2017-04-26T04:57:30.729Z,0.92
2017-04-26T04:57:56.183Z,0.99
2017-04-26T04:58:21.787Z,0.86
2017-04-26T04:58:47.165Z,0.91
2017-04-26T04:59:12.632Z,1.01
2017-04-26T04:59:38.103Z,1.01
2017-04-26T05:00:03.546Z,0.92
2017-04-26T05:00:28.999Z,0.95
2017-04-26T05:00:54.473Z,0.98
2017-04-26T05:01:19.976Z,0.99
2017-04-26T05:01:45.495Z,0.91
2017-04-26T05:02:10.944Z,0.91
2017-04-26T05:02:36.394Z,0.87
2017-04-26T05:03:01.903Z,0.87
2017-04-26T05:03:27.368Z,1.01
2017-04-26T05:03:53.190Z,0.99
2017-04-26T05:04:18.653Z,0.98
2017-04-26T05:04:44.170Z,0.92
2017-04-26T05:05:09.661Z,0.95
2017-04-26T05:05:35.114Z,0.94
2017-04-26T05:06:00.658Z,0.94
2017-04-26T05:06:26.167Z,0.94
2017-04-26T05:06:51.572Z,0.96
2017-04-26T05:07:17.032Z,0.94
2017-04-26T05:07:42.527Z,0.96
2017-04-26T05:08:07.971Z,0.98
2017-04-26T05:08:33.449Z,1.02
2017-04-26T05:08:58.947Z,0.95
2017-04-26T05:09:24.415Z,1.04
2017-04-26T05:09:49.854Z,1.1
2017-04-26T05:10:15.334Z,1.1
2017-04-26T05:10:40.800Z,1.01
2017-04-26T05:11:06.277Z,1.1
2017-04-26T05:11:32.177Z,1.14
2017-04-26T05:11:57.469Z,1.17
2017-04-26T05:12:22.948Z,1.22
2017-04-26T05:12:48.444Z,1.23
2017-04-26T05:13:14.121Z,1.28
2017-04-26T05:13:39.617Z,1.3
2017-04-26T05:14:05.065Z,1.3
2017-04-26T05:14:30.750Z,1.28
2017-04-26T05:14:56.038Z,1.32
2017-04-26T05:15:21.498Z,1.3
2017-04-26T05:15:47.031Z,1.4
2017-04-26T05:16:12.529Z,1.42
2017-04-26T05:16:38.008Z,1.44
2017-04-26T05:17:03.461Z,1.58
2017-04-26T05:17:29.000Z,1.62
2017-04-26T05:17:54.488Z,1.63
2017-04-26T05:18:19.985Z,1.66
2017-04-26T05:18:45.402Z,1.71
2017-04-26T05:19:10.938Z,1.76
2017-04-26T05:19:36.364Z,1.84
2017-04-26T05:20:01.912Z,1.81
2017-04-26T05:20:27.507Z,1.91
2017-04-26T05:20:53.096Z,1.81
2017-04-26T05:21:18.594Z,1.95
2017-04-26T05:21:44.109Z,1.94
2017-04-26T05:22:09.585Z,2.02
2017-04-26T05:22:35.018Z,2.04
2017-04-26T05:23:00.454Z,2.07
2017-04-26T05:23:25.928Z,2.11
2017-04-26T05:23:51.392Z,2.11
2017-04-26T05:24:16.888Z,2.15
2017-04-26T05:24:42.364Z,2.24
2017-04-26T05:25:07.828Z,2.25
2017-04-26T05:25:33.316Z,2.25
2017-04-26T05:25:58.853Z,2.29
2017-04-26T05:26:24.257Z,2.31
2017-04-26T05:26:49.808Z,2.31
2017-04-26T05:27:15.253Z,2.26
2017-04-26T05:27:40.730Z,2.42
2017-04-26T05:28:06.224Z,2.33
2017-04-26T05:28:31.716Z,2.46
2017-04-26T05:28:57.137Z,2.46
2017-04-26T05:29:22.629Z,2.47
2017-04-26T05:29:48.122Z,2.39
2017-04-26T05:30:13.609Z,2.43
2017-04-26T05:30:39.072Z,2.46
2017-04-26T05:31:04.623Z,2.43
2017-04-26T05:31:30.105Z,2.56
2017-04-26T05:31:55.586Z,2.57
2017-04-26T05:32:21.020Z,2.56
2017-04-26T05:32:46.584Z,2.56
2017-04-26T05:33:12.020Z,2.57
2017-04-26T05:33:37.512Z,2.65
2017-04-26T05:34:02.979Z,2.57
2017-04-26T05:34:28.475Z,2.6
2017-04-26T05:34:53.961Z,2.65
2017-04-26T05:35:19.374Z,2.65
2017-04-26T05:35:44.873Z,2.72
2017-04-26T05:36:10.545Z,2.72
2017-04-26T05:36:36.018Z,2.69
2017-04-26T05:37:01.585Z,2.75
2017-04-26T05:37:27.027Z,2.71
2017-04-26T05:37:52.500Z,2.74
2017-04-26T05:38:17.986Z,2.83
2017-04-26T05:38:43.447Z,2.83
2017-04-26T05:39:08.890Z,2.87
2017-04-26T05:39:34.486Z,2.87
2017-04-26T05:39:59.889Z,2.97
2017-04-26T05:40:25.389Z,2.85
2017-04-26T05:40:50.842Z,3
2017-04-26T05:41:16.348Z,3.01
2017-04-26T05:41:41.777Z,2.98
2017-04-26T05:42:07.273Z,3.04
2017-04-26T05:42:32.746Z,3.16
2017-04-26T05:42:58.349Z,3.05
2017-04-26T05:43:23.799Z,3.11
2017-04-26T05:43:49.537Z,3.16
2017-04-26T05:44:15.077Z,3.22
2017-04-26T05:44:40.660Z,3.23
2017-04-26T05:45:06.143Z,3.29
2017-04-26T05:45:31.644Z,3.32
2017-04-26T05:45:57.148Z,3.31
2017-04-26T05:46:22.730Z,3.36
2017-04-26T05:46:48.212Z,3.37
2017-04-26T05:47:13.870Z,3.41
2017-04-26T05:47:39.332Z,3.41
2017-04-26T05:48:05.144Z,3.45
2017-04-26T05:48:30.679Z,3.41
2017-04-26T05:48:56.487Z,3.4
2017-04-26T05:49:21.917Z,3.5
2017-04-26T05:49:47.468Z,3.45
2017-04-26T05:50:13.137Z,3.4
2017-04-26T05:50:38.637Z,3.51
2017-04-26T05:51:04.144Z,3.56
2017-04-26T05:51:29.813Z,3.58
2017-04-26T05:51:55.140Z,3.56
2017-04-26T05:52:20.663Z,3.59
2017-04-26T05:52:46.158Z,3.6
2017-04-26T05:53:11.628Z,3.62
2017-04-26T05:53:37.100Z,3.51
2017-04-26T05:54:02.574Z,3.62
2017-04-26T05:54:28.103Z,3.65
2017-04-26T05:54:53.595Z,3.69
2017-04-26T05:55:19.107Z,3.68
2017-04-26T05:55:44.743Z,3.7
2017-04-26T05:56:10.226Z,3.73
2017-04-26T05:56:35.693Z,3.78
2017-04-26T05:57:01.216Z,3.76
2017-04-26T05:57:26.682Z,3.74
2017-04-26T05:57:52.160Z,3.84
2017-04-26T05:58:17.601Z,3.86
2017-04-26T05:58:43.109Z,3.81
2017-04-26T05:59:08.597Z,3.91
2017-04-26T05:59:34.060Z,3.86
2017-04-26T05:59:59.560Z,3.83
2017-04-26T06:00:24.998Z,3.91
2017-04-26T06:00:50.474Z,3.96
2017-04-26T06:01:15.964Z,3.87
2017-04-26T06:01:41.404Z,3.91
2017-04-26T06:02:06.891Z,3.96
2017-04-26T06:02:32.394Z,4.02
2017-04-26T06:02:57.892Z,4.04
2017-04-26T06:03:23.353Z,3.98
2017-04-26T06:03:48.839Z,4.16
2017-04-26T06:04:14.335Z,4.06
2017-04-26T06:04:39.825Z,4.16
2017-04-26T06:05:05.346Z,4.23
2017-04-26T06:05:30.818Z,4.22
2017-04-26T06:05:56.329Z,4.19
2017-04-26T06:06:21.770Z,4.31
2017-04-26T06:06:47.296Z,4.26
2017-04-26T06:07:12.769Z,4.32
2017-04-26T06:07:38.290Z,4.35
2017-04-26T06:08:03.755Z,4.31
2017-04-26T06:08:29.228Z,4.4
2017-04-26T06:08:54.726Z,4.42
2017-04-26T06:09:20.186Z,4.45
2017-04-26T06:09:45.659Z,4.48
2017-04-26T06:10:11.220Z,4.45
2017-04-26T06:10:36.737Z,4.56
2017-04-26T06:11:02.287Z,4.53
2017-04-26T06:11:27.739Z,4.58
2017-04-26T06:11:53.218Z,4.67
2017-04-26T06:12:18.674Z,4.56
2017-04-26T06:12:44.204Z,4.62
2017-04-26T06:13:09.677Z,4.58
2017-04-26T06:13:35.151Z,4.67
2017-04-26T06:14:00.686Z,4.66
2017-04-26T06:14:26.200Z,4.7
2017-04-26T06:14:51.631Z,4.77
2017-04-26T06:15:17.236Z,4.77
2017-04-26T06:15:42.713Z,4.74
2017-04-26T06:16:08.221Z,4.78
2017-04-26T06:16:33.660Z,4.73
2017-04-26T06:16:59.228Z,4.7
2017-04-26T06:17:24.720Z,4.74
2017-04-26T06:17:50.184Z,4.75
2017-04-26T06:18:15.639Z,4.71
2017-04-26T06:18:41.101Z,4.7
2017-04-26T06:19:06.556Z,4.73
2017-04-26T06:19:32.089Z,4.7
2017-04-26T06:19:57.786Z,4.68
2017-04-26T06:20:23.378Z,4.75
2017-04-26T06:20:48.910Z,4.77
2017-04-26T06:21:14.569Z,4.8
2017-04-26T06:21:40.093Z,4.74
2017-04-26T06:22:05.590Z,4.84
2017-04-26T06:22:31.023Z,4.87
2017-04-26T06:22:56.615Z,4.87
2017-04-26T06:23:22.111Z,4.84
2017-04-26T06:23:47.739Z,4.92
2017-04-26T06:24:13.258Z,4.94
2017-04-26T06:24:38.732Z,4.97
2017-04-26T06:25:04.178Z,5.05
2017-04-26T06:25:29.677Z,5.04
2017-04-26T06:25:55.152Z,5.02
2017-04-26T06:26:20.630Z,5.07
2017-04-26T06:26:46.078Z,5
2017-04-26T06:27:11.563Z,5.1
2017-04-26T06:27:37.123Z,5.14
2017-04-26T06:28:02.617Z,4.99
2017-04-26T06:28:28.041Z,5.05
2017-04-26T06:28:53.515Z,4.99
2017-04-26T06:29:19.049Z,5.02
2017-04-26T06:29:44.439Z,5.1
2017-04-26T06:30:09.917Z,5.08
2017-04-26T06:30:35.440Z,5.1
2017-04-26T06:31:00.919Z,5.07
2017-04-26T06:31:26.325Z,5.11
2017-04-26T06:31:51.788Z,5.11
2017-04-26T06:32:17.332Z,5.1
2017-04-26T06:32:42.776Z,5.08
2017-04-26T06:33:08.273Z,5.14
2017-04-26T06:33:33.718Z,5.18
2017-04-26T06:33:59.181Z,5.14
2017-04-26T06:34:24.656Z,5.12
2017-04-26T06:34:50.113Z,5.17
2017-04-26T06:35:15.628Z,5.12
2017-04-26T06:35:41.085Z,5.18
2017-04-26T06:36:06.545Z,5.15
2017-04-26T06:36:32.069Z,5.15
2017-04-26T06:36:57.552Z,5.05
2017-04-26T06:37:23.037Z,5.2
2017-04-26T06:37:48.562Z,5.23
2017-04-26T06:38:13.987Z,5.29
2017-04-26T06:38:39.453Z,5.25
2017-04-26T06:39:04.946Z,5.26
2017-04-26T06:39:30.380Z,5.3
2017-04-26T06:39:55.854Z,5.33
2017-04-26T06:40:21.292Z,5.39
2017-04-26T06:40:46.736Z,5.3
2017-04-26T06:41:12.332Z,5.5
2017-04-26T06:41:37.793Z,5.46
2017-04-26T06:42:03.310Z,5.47
2017-04-26T06:42:28.737Z,5.48
2017-04-26T06:42:54.251Z,5.57
2017-04-26T06:43:19.770Z,5.62
2017-04-26T06:43:45.230Z,5.61
2017-04-26T06:44:53.912Z,5.65
2017-04-26T06:45:19.362Z,5.61
2017-04-26T06:45:44.862Z,5.59
2017-04-26T06:46:10.325Z,5.65
2017-04-26T06:46:35.847Z,5.72
2017-04-26T06:47:01.293Z,5.69
2017-04-26T06:47:26.801Z,5.65
2017-04-26T06:47:52.273Z,5.73
2017-04-26T06:48:17.732Z,5.69
2017-04-26T06:48:43.264Z,5.75
2017-04-26T06:49:08.620Z,5.73
2017-04-26T06:49:34.108Z,5.75
2017-04-26T06:49:59.576Z,5.72
2017-04-26T06:50:25.026Z,5.82
2017-04-26T06:50:50.489Z,5.87
2017-04-26T06:51:16.023Z,5.8
2017-04-26T06:51:41.559Z,5.83
2017-04-26T06:52:07.005Z,5.91
2017-04-26T06:52:32.486Z,5.87
2017-04-26T06:52:57.986Z,5.89
2017-04-26T06:53:23.461Z,5.99
2017-04-26T06:53:48.935Z,6.01
2017-04-26T06:54:14.394Z,5.97
2017-04-26T06:54:39.896Z,5.98
2017-04-26T06:55:05.297Z,5.93
2017-04-26T06:55:30.761Z,5.97
2017-04-26T06:55:56.232Z,5.9
2017-04-26T06:56:21.761Z,5.98
2017-04-26T06:56:47.225Z,6.01
2017-04-26T06:57:12.691Z,5.91
2017-04-26T06:57:38.217Z,5.87
2017-04-26T06:58:03.662Z,5.94
2017-04-26T06:58:29.118Z,5.9
2017-04-26T06:58:54.563Z,5.91
2017-04-26T06:59:20.056Z,5.97
2017-04-26T06:59:45.478Z,5.9
2017-04-26T07:00:10.951Z,5.94
2017-04-26T07:00:36.441Z,5.91
2017-04-26T07:01:01.896Z,6.02
2017-04-26T07:01:27.407Z,5.98
2017-04-26T07:01:52.841Z,5.97
2017-04-26T07:02:18.304Z,6.01
2017-04-26T07:02:43.837Z,5.99
2017-04-26T07:03:09.316Z,6.02
2017-04-26T07:03:34.784Z,6.04
2017-04-26T07:04:00.225Z,6.01
2017-04-26T07:04:25.698Z,6.04
2017-04-26T07:04:51.193Z,5.99
2017-04-26T07:05:16.667Z,6.14
2017-04-26T07:05:42.120Z,6.04
2017-04-26T07:06:07.582Z,6.05
2017-04-26T07:06:33.058Z,6.12
2017-04-26T07:06:58.620Z,6.17
2017-04-26T07:07:24.080Z,6.08
2017-04-26T07:07:49.562Z,6.19
2017-04-26T07:08:14.995Z,6.28
2017-04-26T07:08:40.487Z,6.22
2017-04-26T07:09:05.993Z,6.26
2017-04-26T07:09:31.441Z,6.33
2017-04-26T07:09:56.902Z,6.44
2017-04-26T07:10:22.384Z,6.45
2017-04-26T07:10:47.821Z,6.45
2017-04-26T07:11:13.370Z,6.49
2017-04-26T07:11:38.789Z,6.52
2017-04-26T07:12:04.278Z,6.51
2017-04-26T07:12:29.834Z,6.56
2017-04-26T07:12:55.351Z,6.52
2017-04-26T07:13:20.962Z,6.67
2017-04-26T07:13:46.510Z,6.63
2017-04-26T07:14:12.042Z,6.72
2017-04-26T07:14:37.592Z,6.67
2017-04-26T07:15:03.137Z,6.7
2017-04-26T07:15:28.595Z,6.74
2017-04-26T07:15:54.084Z,6.77
2017-04-26T07:16:19.554Z,6.79
2017-04-26T07:16:45.050Z,6.85
2017-04-26T07:17:10.462Z,6.82
2017-04-26T07:17:36.000Z,6.87
2017-04-26T07:18:01.715Z,6.89
2017-04-26T07:18:27.357Z,6.92
2017-04-26T07:18:53.133Z,6.96
2017-04-26T07:19:18.597Z,6.92
2017-04-26T07:19:44.154Z,6.89
2017-04-26T07:20:09.622Z,6.93
2017-04-26T07:20:35.106Z,6.99
2017-04-26T07:21:00.597Z,7
2017-04-26T07:21:26.060Z,6.99
2017-04-26T07:21:51.511Z,7.03
2017-04-26T07:22:17.084Z,7.06
2017-04-26T07:22:42.615Z,7.11
2017-04-26T07:23:08.524Z,7.2
2017-04-26T07:23:34.239Z,7.15
2017-04-26T07:23:59.788Z,7.23
2017-04-26T07:24:25.253Z,7.32
2017-04-26T07:24:50.732Z,7.29
2017-04-26T07:25:16.209Z,7.33
2017-04-26T07:25:41.734Z,7.35
2017-04-26T07:26:07.182Z,7.39
2017-04-26T07:26:32.607Z,7.5
2017-04-26T07:26:58.075Z,7.57
2017-04-26T07:27:23.562Z,7.54
2017-04-26T07:27:49.058Z,7.48
2017-04-26T07:28:14.576Z,7.56
2017-04-26T07:28:40.023Z,7.57
2017-04-26T07:29:05.515Z,7.7
2017-04-26T07:29:31.008Z,7.76
2017-04-26T07:29:56.447Z,7.73
2017-04-26T07:30:22.050Z,7.75
2017-04-26T07:30:47.633Z,7.67
2017-04-26T07:31:13.109Z,7.63
2017-04-26T07:31:38.678Z,7.67
2017-04-26T07:32:04.311Z,7.7
2017-04-26T07:32:29.802Z,7.69
2017-04-26T07:32:55.450Z,7.69
2017-04-26T07:33:20.937Z,7.83
2017-04-26T07:33:46.402Z,7.73
2017-04-26T07:34:11.989Z,7.82
2017-04-26T07:34:37.502Z,7.82
2017-04-26T07:35:03.020Z,8
2017-04-26T07:35:28.485Z,7.98
2017-04-26T07:35:53.939Z,8.08
2017-04-26T07:36:19.401Z,8.16
2017-04-26T07:36:44.867Z,8.23
2017-04-26T07:37:10.361Z,8.19
2017-04-26T07:37:35.829Z,8.23
2017-04-26T07:38:01.298Z,8.3
2017-04-26T07:38:26.757Z,8.34
2017-04-26T07:38:52.238Z,8.33
2017-04-26T07:39:17.740Z,8.33
2017-04-26T07:39:43.215Z,8.46
2017-04-26T07:40:08.717Z,8.38
2017-04-26T07:40:34.167Z,8.55
2017-04-26T07:40:59.637Z,8.45
2017-04-26T07:41:25.231Z,8.44
2017-04-26T07:41:50.720Z,8.48
2017-04-26T07:42:16.212Z,8.46
2017-04-26T07:42:41.690Z,8.49
2017-04-26T07:43:07.202Z,8.48
2017-04-26T07:43:32.708Z,8.46
2017-04-26T07:43:58.221Z,8.56
2017-04-26T07:44:23.760Z,8.61
2017-04-26T07:44:49.205Z,8.69
2017-04-26T07:45:14.722Z,8.6
2017-04-26T07:45:40.223Z,8.71
2017-04-26T07:46:05.686Z,8.74
2017-04-26T07:46:31.209Z,8.71
2017-04-26T07:46:56.679Z,8.78
2017-04-26T07:47:22.235Z,8.74
2017-04-26T07:47:47.666Z,8.78
2017-04-26T07:48:13.205Z,8.73
2017-04-26T07:48:38.680Z,8.73
2017-04-26T07:49:04.179Z,8.71
2017-04-26T07:49:29.655Z,8.71
2017-04-26T07:49:55.096Z,8.79
2017-04-26T07:50:20.699Z,8.76
2017-04-26T07:50:46.170Z,8.64
2017-04-26T07:51:11.624Z,8.67
2017-04-26T07:51:37.112Z,8.61
2017-04-26T07:52:02.553Z,8.61
2017-04-26T07:52:28.028Z,8.58
2017-04-26T07:52:53.515Z,8.48
2017-04-26T07:53:18.960Z,8.51
2017-04-26T07:53:44.534Z,8.51
2017-04-26T07:54:09.948Z,8.48
2017-04-26T07:54:35.407Z,8.53
2017-04-26T07:55:01.043Z,8.58
2017-04-26T07:55:26.407Z,8.61
2017-04-26T07:55:51.940Z,8.53
2017-04-26T07:56:17.454Z,8.63
2017-04-26T07:56:42.889Z,8.67
2017-04-26T07:57:08.406Z,8.61
2017-04-26T07:57:33.803Z,8.66
2017-04-26T07:57:59.275Z,8.67
2017-04-26T07:58:24.833Z,8.64
2017-04-26T07:58:50.294Z,8.56
2017-04-26T07:59:15.790Z,8.46
2017-04-26T07:59:41.225Z,8.49
2017-04-26T08:00:06.726Z,8.42
2017-04-26T08:00:32.179Z,8.41
2017-04-26T08:00:57.643Z,8.38
2017-04-26T08:01:23.099Z,8.3
2017-04-26T08:01:48.620Z,8.33
2017-04-26T08:02:14.124Z,8.24
2017-04-26T08:02:39.562Z,8.2
2017-04-26T08:03:05.066Z,8.13
2017-04-26T08:03:30.549Z,8.12
2017-04-26T08:03:56.025Z,8.06
2017-04-26T08:04:21.506Z,8.06
2017-04-26T08:04:46.972Z,8.1
2017-04-26T08:05:12.476Z,7.95
2017-04-26T08:05:37.896Z,7.88
2017-04-26T08:06:03.391Z,7.87
2017-04-26T08:06:28.851Z,7.77
2017-04-26T08:06:54.291Z,7.73
2017-04-26T08:07:19.796Z,7.77
2017-04-26T08:07:45.268Z,7.69
2017-04-26T08:08:10.713Z,7.51
2017-04-26T08:08:36.202Z,7.58
2017-04-26T08:09:01.751Z,7.63
2017-04-26T08:09:27.199Z,7.63
2017-04-26T08:09:52.844Z,7.57
2017-04-26T08:10:18.323Z,7.56
2017-04-26T08:10:43.812Z,7.53
2017-04-26T08:11:09.359Z,7.67
2017-04-26T08:11:34.837Z,7.58
2017-04-26T08:12:00.292Z,7.7
2017-04-26T08:12:25.752Z,7.63
2017-04-26T08:12:51.230Z,7.73
2017-04-26T08:13:16.719Z,7.66
2017-04-26T08:13:42.316Z,7.7
2017-04-26T08:14:08.194Z,7.75
2017-04-26T08:14:33.669Z,7.75
2017-04-26T08:14:59.308Z,7.73
2017-04-26T08:15:24.813Z,7.75
2017-04-26T08:15:50.331Z,7.88
2017-04-26T08:16:15.795Z,7.91
2017-04-26T08:16:41.245Z,7.83
2017-04-26T08:17:06.721Z,7.76
2017-04-26T08:17:32.244Z,7.77
2017-04-26T08:17:57.767Z,7.79
2017-04-26T08:18:23.205Z,7.77
2017-04-26T08:18:48.709Z,7.8
2017-04-26T08:19:14.153Z,7.73
2017-04-26T08:19:39.672Z,7.69
2017-04-26T08:20:05.118Z,7.67
2017-04-26T08:20:30.581Z,7.72
2017-04-26T08:20:56.101Z,7.66
2017-04-26T08:21:21.616Z,7.63
2017-04-26T08:21:47.128Z,7.51
2017-04-26T08:22:12.596Z,7.61
2017-04-26T08:22:38.058Z,7.56
2017-04-26T08:23:03.543Z,7.56
2017-04-26T08:23:29.189Z,7.61
2017-04-26T08:23:54.612Z,7.5
2017-04-26T08:24:20.062Z,7.6
2017-04-26T08:24:45.601Z,7.5
2017-04-26T08:25:11.060Z,7.5
2017-04-26T08:25:36.558Z,7.57
2017-04-26T08:26:02.020Z,7.57
2017-04-26T08:26:27.481Z,7.57
2017-04-26T08:26:52.961Z,7.47
2017-04-26T08:27:18.425Z,7.48
2017-04-26T08:27:43.899Z,7.58
2017-04-26T08:28:09.348Z,7.6
2017-04-26T08:28:34.839Z,7.57
2017-04-26T08:29:00.453Z,7.66
2017-04-26T08:29:26.017Z,7.58
2017-04-26T08:29:51.672Z,7.7
2017-04-26T08:30:17.333Z,7.66
2017-04-26T08:30:43.733Z,7.87
2017-04-26T08:31:09.335Z,7.75
2017-04-26T08:31:34.767Z,7.73
2017-04-26T08:32:00.229Z,7.8
2017-04-26T08:32:25.671Z,7.8
2017-04-26T08:32:51.124Z,7.8
2017-04-26T08:33:16.667Z,7.8
2017-04-26T08:33:42.141Z,7.87
2017-04-26T08:34:07.556Z,7.8
2017-04-26T08:34:32.973Z,7.83
2017-04-26T08:34:58.453Z,7.85
2017-04-26T08:35:23.918Z,7.83
2017-04-26T08:35:49.376Z,7.91
2017-04-26T08:36:14.870Z,7.79
2017-04-26T08:36:40.402Z,7.8
2017-04-26T08:37:06.199Z,7.91
2017-04-26T08:37:31.864Z,7.73
2017-04-26T08:37:57.474Z,7.91
2017-04-26T08:38:22.984Z,7.9
2017-04-26T08:38:48.438Z,7.82
2017-04-26T08:39:13.916Z,7.79
2017-04-26T08:39:39.396Z,7.88
2017-04-26T08:40:04.851Z,7.88
2017-04-26T08:40:30.345Z,7.87
2017-04-26T08:40:55.794Z,7.91
2017-04-26T08:41:21.516Z,7.83
2017-04-26T08:41:47.055Z,7.88
2017-04-26T08:42:12.493Z,7.83
2017-04-26T08:42:37.965Z,7.9
2017-04-26T08:43:03.478Z,7.88
2017-04-26T08:43:28.929Z,7.87
2017-04-26T08:43:54.547Z,7.9
2017-04-26T08:44:19.984Z,7.95
2017-04-26T08:44:45.432Z,7.9
2017-04-26T08:45:10.935Z,7.91
2017-04-26T08:45:36.352Z,7.98
2017-04-26T08:46:02.087Z,7.88
2017-04-26T08:46:27.412Z,7.93
2017-04-26T08:46:52.874Z,7.98
2017-04-26T08:47:18.297Z,8.01
2017-04-26T08:47:43.791Z,8.06
2017-04-26T08:48:09.362Z,7.98
2017-04-26T08:48:34.813Z,8.08
2017-04-26T08:49:00.580Z,8.09
2017-04-26T08:49:25.977Z,8.05
2017-04-26T08:49:51.605Z,8.06
2017-04-26T08:50:16.952Z,8
2017-04-26T08:50:42.421Z,8.12
2017-04-26T08:51:07.908Z,8.01
2017-04-26T08:51:33.385Z,8.05
2017-04-26T08:51:58.889Z,8.08
2017-04-26T08:52:24.288Z,8.03
2017-04-26T08:52:49.899Z,8.03
2017-04-26T08:53:15.445Z,8.03
2017-04-26T08:53:40.875Z,8.06
2017-04-26T08:54:06.309Z,8.08
2017-04-26T08:54:31.952Z,8.01
2017-04-26T08:54:57.426Z,8
2017-04-26T08:55:22.871Z,8.06
2017-04-26T08:55:48.347Z,7.95
2017-04-26T08:56:13.855Z,7.98
2017-04-26T08:56:39.270Z,7.94
2017-04-26T08:57:04.776Z,7.91
2017-04-26T08:57:30.283Z,7.97
2017-04-26T08:57:55.805Z,7.94
2017-04-26T08:58:21.236Z,7.98
2017-04-26T08:58:46.724Z,7.95
2017-04-26T08:59:12.277Z,8.03
2017-04-26T08:59:37.785Z,8.01
2017-04-26T09:00:03.247Z,8
2017-04-26T09:00:28.734Z,8.06
2017-04-26T09:00:54.326Z,8.03
2017-04-26T09:01:19.865Z,8.1
2017-04-26T09:01:45.419Z,8.15
2017-04-26T09:02:10.873Z,8.19
2017-04-26T09:02:36.339Z,8.26
2017-04-26T09:03:01.792Z,8.27
2017-04-26T09:03:27.211Z,8.38
2017-04-26T09:03:52.770Z,8.44
2017-04-26T09:04:18.288Z,8.45
2017-04-26T09:04:44.052Z,8.56
2017-04-26T09:05:09.470Z,8.66
2017-04-26T09:05:35.023Z,8.67
2017-04-26T09:06:00.569Z,8.79
2017-04-26T09:06:26.160Z,8.82
2017-04-26T09:06:51.524Z,8.88
2017-04-26T09:07:17.046Z,9.11
2017-04-26T09:07:42.647Z,9.25
2017-04-26T09:08:08.107Z,9.23
2017-04-26T09:08:33.590Z,9.37
2017-04-26T09:08:59.072Z,9.54
2017-04-26T09:09:24.547Z,9.61
2017-04-26T09:09:50.012Z,9.72
2017-04-26T09:10:15.488Z,9.77
2017-04-26T09:10:40.959Z,9.92
2017-04-26T09:11:06.501Z,9.94
2017-04-26T09:11:32.110Z,10.1
2017-04-26T09:11:57.490Z,10.19
2017-04-26T09:12:22.948Z,10.2
2017-04-26T09:12:48.485Z,10.31
2017-04-26T09:13:13.961Z,10.4
2017-04-26T09:13:39.465Z,10.37
2017-04-26T09:14:04.962Z,10.51
2017-04-26T09:14:30.406Z,10.54
2017-04-26T09:14:55.864Z,10.57
2017-04-26T09:15:21.318Z,10.59
2017-04-26T09:15:46.836Z,10.64
2017-04-26T09:16:12.294Z,10.67
2017-04-26T09:16:37.889Z,10.68
2017-04-26T09:17:03.335Z,10.64
2017-04-26T09:17:28.856Z,10.68
2017-04-26T09:17:54.333Z,10.63
2017-04-26T09:18:19.772Z,10.64
2017-04-26T09:18:45.314Z,10.6
2017-04-26T09:19:10.762Z,10.61
2017-04-26T09:19:36.227Z,10.61
2017-04-26T09:20:01.664Z,10.59
2017-04-26T09:20:27.120Z,10.57
2017-04-26T09:20:52.589Z,10.56
2017-04-26T09:21:18.050Z,10.59
2017-04-26T09:21:43.530Z,10.54
2017-04-26T09:22:09.032Z,10.6
2017-04-26T09:22:34.485Z,10.53
2017-04-26T09:22:59.924Z,10.57
2017-04-26T09:23:25.399Z,10.53
2017-04-26T09:23:50.885Z,10.51
2017-04-26T09:24:16.416Z,10.4
2017-04-26T09:24:41.844Z,10.38
2017-04-26T09:25:07.369Z,10.35
2017-04-26T09:25:32.847Z,10.28
2017-04-26T09:25:58.326Z,10.3
2017-04-26T09:26:23.792Z,10.19
2017-04-26T09:26:49.262Z,10.16
2017-04-26T09:27:14.751Z,10.04
2017-04-26T09:27:40.241Z,10.05
2017-04-26T09:28:05.717Z,10.04
2017-04-26T09:28:31.176Z,9.98
2017-04-26T09:28:56.640Z,10.04
2017-04-26T09:29:22.088Z,9.91
2017-04-26T09:29:47.593Z,9.91
2017-04-26T09:30:13.068Z,9.87
2017-04-26T09:30:38.566Z,9.95
2017-04-26T09:31:03.992Z,9.91
2017-04-26T09:31:29.496Z,9.79
2017-04-26T09:31:55.011Z,9.79
2017-04-26T09:32:20.458Z,9.74
2017-04-26T09:32:45.913Z,9.8
2017-04-26T09:33:11.427Z,9.8
2017-04-26T09:33:36.907Z,9.77
2017-04-26T09:34:02.466Z,9.8
2017-04-26T09:34:27.947Z,9.89
2017-04-26T09:34:53.453Z,9.83
2017-04-26T09:35:18.902Z,9.97
2017-04-26T09:35:44.486Z,9.94
2017-04-26T09:36:09.930Z,9.97
2017-04-26T09:36:35.469Z,9.87
2017-04-26T09:37:00.895Z,9.87
2017-04-26T09:37:26.448Z,9.83
2017-04-26T09:37:51.946Z,9.92
2017-04-26T09:38:17.421Z,9.94
2017-04-26T09:38:42.871Z,10.01
2017-04-26T09:39:08.350Z,9.94
2017-04-26T09:39:33.944Z,9.89
2017-04-26T09:39:59.381Z,10.04
2017-04-26T09:40:25.128Z,10.09
2017-04-26T09:40:50.856Z,10.04
2017-04-26T09:41:16.323Z,10.04